BBC London — V2FJ2 — position and weather

sailwx.info

Track history (hours):
 
Tides and Currents Weather Stations Pressure Air Temp Water Temp Dewpoint Dewpoint Depression Visibility Wind Speed Wind Dir Waves Ship Positions

BBC London

Last reported at 2017-Oct-15 03:05 UTC. Time now 2017-Oct-18 00:06 UTC.
Position N 36°42' E 000°07'.

Length 130 m; draft 6.9 m.

Type: Ship. MMSI: 305690000.

Date/timePositionNaut miles runAvg speedWind from/ knotsBaromVisibWave heightAir tempDewpointWater temp
2017-Oct-15 03:05N 36°42' E 000°07'211.9
2017-Oct-15 02:54N 36°42' E 000°09'2211.8
2017-Oct-15 01:05N 36°46' E 000°36'111.6
2017-Oct-15 01:01N 36°46' E 000°37'1811.9
2017-Oct-14 23:31N 36°47' E 000°59'011.9
2017-Oct-14 23:29N 36°47' E 000°59'2911.7
2017-Oct-14 21:00N 36°52' E 001°35'2711.4
2017-Oct-14 18:38N 36°55' E 002°09'211.4
2017-Oct-14 18:26N 36°56' E 002°12'711.4
2017-Oct-14 17:49N 36°56' E 002°20'411.3
2017-Oct-14 17:31N 36°57' E 002°25'611.3
2017-Oct-14 17:00N 36°58' E 002°32'611.5
2017-Oct-14 16:31N 36°58' E 002°39'611.4
2017-Oct-14 16:01N 36°59' E 002°46'611.2
2017-Oct-14 15:30N 36°60' E 002°53'611.3
2017-Oct-14 15:01N 37°01' E 002°60'611.4
2017-Oct-14 14:31N 37°01' E 003°07'54011.1
2017-Oct-12 14:01N 36°33' E 014°20'010.7
2017-Oct-12 14:00N 36°33' E 014°21'611.2
2017-Oct-12 13:27N 36°31' E 014°28'511.2
2017-Oct-12 13:00N 36°29' E 014°34'  
Track history (hours):
 
Tides and Currents Weather Stations Pressure Air Temp Water Temp Dewpoint Dewpoint Depression Visibility Wind Speed Wind Dir Waves Ship Positions

BBC London

Last reported at 2017-Oct-15 03:05 UTC. Time now 2017-Oct-18 00:06 UTC.
Position N 36°42' E 000°07'.

Length 130 m; draft 6.9 m.

Type: Ship. MMSI: 305690000.

Date/timePositionNaut miles runAvg speedWind from/ knotsBaromVisibWave heightAir tempDewpointWater temp
2017-Oct-15 03:05N 36°42' E 000°07'211.9
2017-Oct-15 02:54N 36°42' E 000°09'2211.8
2017-Oct-15 01:05N 36°46' E 000°36'111.6
2017-Oct-15 01:01N 36°46' E 000°37'1811.9
2017-Oct-14 23:31N 36°47' E 000°59'011.9
2017-Oct-14 23:29N 36°47' E 000°59'2911.7
2017-Oct-14 21:00N 36°52' E 001°35'2711.4
2017-Oct-14 18:38N 36°55' E 002°09'211.4
2017-Oct-14 18:26N 36°56' E 002°12'711.4
2017-Oct-14 17:49N 36°56' E 002°20'411.3
2017-Oct-14 17:31N 36°57' E 002°25'611.3
2017-Oct-14 17:00N 36°58' E 002°32'611.5
2017-Oct-14 16:31N 36°58' E 002°39'611.4
2017-Oct-14 16:01N 36°59' E 002°46'611.2
2017-Oct-14 15:30N 36°60' E 002°53'611.3
2017-Oct-14 15:01N 37°01' E 002°60'611.4
2017-Oct-14 14:31N 37°01' E 003°07'54011.1
2017-Oct-12 14:01N 36°33' E 014°20'010.7
2017-Oct-12 14:00N 36°33' E 014°21'611.2
2017-Oct-12 13:27N 36°31' E 014°28'511.2
2017-Oct-12 13:00N 36°29' E 014°34'  

Dump ship's entire track history